sensor_id;sensor_type;location;lat;lon;timestamp;temperature;humidity
65864;SHT30;52639;51.180;20.460;2022-12-18T00:03:11;-4.90;96.73
65864;SHT30;52639;51.180;20.460;2022-12-18T00:07:14;-4.90;96.66
65864;SHT30;52639;51.180;20.460;2022-12-18T00:11:18;-4.91;96.54
65864;SHT30;52639;51.180;20.460;2022-12-18T00:15:22;-4.90;96.44
65864;SHT30;52639;51.180;20.460;2022-12-18T00:19:26;-4.93;96.23
65864;SHT30;52639;51.180;20.460;2022-12-18T00:23:29;-4.93;96.26
65864;SHT30;52639;51.180;20.460;2022-12-18T00:27:32;-4.94;96.16
65864;SHT30;52639;51.180;20.460;2022-12-18T00:31:37;-4.94;96.34
65864;SHT30;52639;51.180;20.460;2022-12-18T00:35:40;-4.94;96.38
65864;SHT30;52639;51.180;20.460;2022-12-18T00:39:42;-4.91;96.28
65864;SHT30;52639;51.180;20.460;2022-12-18T00:43:45;-4.94;96.32
65864;SHT30;52639;51.180;20.460;2022-12-18T00:47:49;-4.93;96.44
65864;SHT30;52639;51.180;20.460;2022-12-18T00:51:52;-4.91;96.46
65864;SHT30;52639;51.180;20.460;2022-12-18T00:55:55;-4.88;96.46
65864;SHT30;52639;51.180;20.460;2022-12-18T00:59:57;-4.84;96.47
65864;SHT30;52639;51.180;20.460;2022-12-18T01:04:03;-4.85;96.48
65864;SHT30;52639;51.180;20.460;2022-12-18T01:08:05;-4.90;96.47
65864;SHT30;52639;51.180;20.460;2022-12-18T01:12:08;-4.87;96.49
65864;SHT30;52639;51.180;20.460;2022-12-18T01:16:12;-4.87;96.53
65864;SHT30;52639;51.180;20.460;2022-12-18T01:20:17;-4.85;96.50
65864;SHT30;52639;51.180;20.460;2022-12-18T01:24:19;-4.83;96.47
65864;SHT30;52639;51.180;20.460;2022-12-18T01:28:22;-4.84;96.33
65864;SHT30;52639;51.180;20.460;2022-12-18T01:32:25;-4.85;96.38
65864;SHT30;52639;51.180;20.460;2022-12-18T01:36:30;-4.87;96.40
65864;SHT30;52639;51.180;20.460;2022-12-18T01:40:33;-4.84;96.51
65864;SHT30;52639;51.180;20.460;2022-12-18T01:44:58;-4.85;96.48
65864;SHT30;52639;51.180;20.460;2022-12-18T01:49:01;-4.81;96.52
65864;SHT30;52639;51.180;20.460;2022-12-18T01:53:11;-4.81;96.57
65864;SHT30;52639;51.180;20.460;2022-12-18T01:57:15;-4.79;96.53
65864;SHT30;52639;51.180;20.460;2022-12-18T02:01:18;-4.80;96.57
65864;SHT30;52639;51.180;20.460;2022-12-18T02:05:29;-4.79;96.56
65864;SHT30;52639;51.180;20.460;2022-12-18T02:09:41;-4.79;96.67
65864;SHT30;52639;51.180;20.460;2022-12-18T02:13:53;-4.77;96.64
65864;SHT30;52639;51.180;20.460;2022-12-18T02:18:01;-4.79;96.71
65864;SHT30;52639;51.180;20.460;2022-12-18T02:22:16;-4.76;96.75
65864;SHT30;52639;51.180;20.460;2022-12-18T02:26:26;-4.70;96.80
65864;SHT30;52639;51.180;20.460;2022-12-18T02:30:31;-4.71;96.76
65864;SHT30;52639;51.180;20.460;2022-12-18T02:34:38;-4.70;96.79
65864;SHT30;52639;51.180;20.460;2022-12-18T02:38:42;-4.74;96.88
65864;SHT30;52639;51.180;20.460;2022-12-18T02:42:48;-4.71;96.92
65864;SHT30;52639;51.180;20.460;2022-12-18T02:46:52;-4.73;96.96
65864;SHT30;52639;51.180;20.460;2022-12-18T02:51:02;-4.70;97.01
65864;SHT30;52639;51.180;20.460;2022-12-18T02:55:16;-4.69;97.17
65864;SHT30;52639;51.180;20.460;2022-12-18T02:59:26;-4.71;97.23
65864;SHT30;52639;51.180;20.460;2022-12-18T03:03:37;-4.73;97.20
65864;SHT30;52639;51.180;20.460;2022-12-18T03:07:46;-4.77;97.25
65864;SHT30;52639;51.180;20.460;2022-12-18T03:11:54;-4.73;97.34
65864;SHT30;52639;51.180;20.460;2022-12-18T03:16:20;-4.74;97.31
65864;SHT30;52639;51.180;20.460;2022-12-18T03:20:25;-4.71;97.23
65864;SHT30;52639;51.180;20.460;2022-12-18T03:24:30;-4.76;97.21
65864;SHT30;52639;51.180;20.460;2022-12-18T03:28:37;-4.81;97.36
65864;SHT30;52639;51.180;20.460;2022-12-18T03:32:46;-4.87;97.39
65864;SHT30;52639;51.180;20.460;2022-12-18T03:36:49;-4.87;97.50
65864;SHT30;52639;51.180;20.460;2022-12-18T03:40:58;-4.88;97.45
65864;SHT30;52639;51.180;20.460;2022-12-18T03:45:07;-4.90;97.45
65864;SHT30;52639;51.180;20.460;2022-12-18T03:49:17;-4.93;97.41
65864;SHT30;52639;51.180;20.460;2022-12-18T03:53:30;-4.97;97.32
65864;SHT30;52639;51.180;20.460;2022-12-18T03:57:34;-4.98;97.42
65864;SHT30;52639;51.180;20.460;2022-12-18T04:01:41;-5.03;97.40
65864;SHT30;52639;51.180;20.460;2022-12-18T04:05:48;-5.04;97.43
65864;SHT30;52639;51.180;20.460;2022-12-18T04:09:55;-5.05;97.46
65864;SHT30;52639;51.180;20.460;2022-12-18T04:13:58;-5.04;97.54
65864;SHT30;52639;51.180;20.460;2022-12-18T04:18:00;-5.01;97.62
65864;SHT30;52639;51.180;20.460;2022-12-18T04:22:05;-5.04;97.46
65864;SHT30;52639;51.180;20.460;2022-12-18T04:26:07;-4.98;97.57
65864;SHT30;52639;51.180;20.460;2022-12-18T04:30:11;-5.00;97.61
65864;SHT30;52639;51.180;20.460;2022-12-18T04:34:13;-4.98;97.51
65864;SHT30;52639;51.180;20.460;2022-12-18T04:38:18;-5.00;97.50
65864;SHT30;52639;51.180;20.460;2022-12-18T04:42:20;-4.98;97.53
65864;SHT30;52639;51.180;20.460;2022-12-18T04:46:23;-4.98;97.45
65864;SHT30;52639;51.180;20.460;2022-12-18T04:50:25;-4.95;97.49
65864;SHT30;52639;51.180;20.460;2022-12-18T04:54:31;-4.95;97.50
65864;SHT30;52639;51.180;20.460;2022-12-18T04:58:34;-4.91;97.55
65864;SHT30;52639;51.180;20.460;2022-12-18T05:02:36;-4.93;97.47
65864;SHT30;52639;51.180;20.460;2022-12-18T05:06:39;-4.90;97.45
65864;SHT30;52639;51.180;20.460;2022-12-18T05:10:43;-4.91;97.42
65864;SHT30;52639;51.180;20.460;2022-12-18T05:14:46;-4.90;97.48
65864;SHT30;52639;51.180;20.460;2022-12-18T05:18:48;-4.88;97.42
65864;SHT30;52639;51.180;20.460;2022-12-18T05:22:52;-4.85;97.39
65864;SHT30;52639;51.180;20.460;2022-12-18T05:26:56;-4.85;97.35
65864;SHT30;52639;51.180;20.460;2022-12-18T05:31:00;-4.85;97.35
65864;SHT30;52639;51.180;20.460;2022-12-18T05:35:04;-4.88;97.35
65864;SHT30;52639;51.180;20.460;2022-12-18T05:39:08;-4.83;97.32
65864;SHT30;52639;51.180;20.460;2022-12-18T05:43:13;-4.85;97.25
65864;SHT30;52639;51.180;20.460;2022-12-18T05:47:15;-4.85;97.37
65864;SHT30;52639;51.180;20.460;2022-12-18T05:51:21;-4.90;97.28
65864;SHT30;52639;51.180;20.460;2022-12-18T05:55:23;-4.87;97.25
65864;SHT30;52639;51.180;20.460;2022-12-18T05:59:32;-4.88;97.30
65864;SHT30;52639;51.180;20.460;2022-12-18T06:03:35;-4.88;97.31
65864;SHT30;52639;51.180;20.460;2022-12-18T06:07:37;-4.90;97.35
65864;SHT30;52639;51.180;20.460;2022-12-18T06:11:40;-4.90;97.23
65864;SHT30;52639;51.180;20.460;2022-12-18T06:15:44;-4.90;97.27
65864;SHT30;52639;51.180;20.460;2022-12-18T06:19:47;-4.91;97.23
65864;SHT30;52639;51.180;20.460;2022-12-18T06:23:50;-4.94;97.11
65864;SHT30;52639;51.180;20.460;2022-12-18T06:27:52;-4.93;97.02
65864;SHT30;52639;51.180;20.460;2022-12-18T06:31:56;-4.90;97.09
65864;SHT30;52639;51.180;20.460;2022-12-18T06:36:00;-4.90;97.06
65864;SHT30;52639;51.180;20.460;2022-12-18T06:40:04;-4.93;97.09
65864;SHT30;52639;51.180;20.460;2022-12-18T06:44:07;-4.91;97.00
65864;SHT30;52639;51.180;20.460;2022-12-18T06:48:11;-4.91;96.94
65864;SHT30;52639;51.180;20.460;2022-12-18T06:52:17;-4.90;97.02
65864;SHT30;52639;51.180;20.460;2022-12-18T06:56:20;-4.90;96.95
65864;SHT30;52639;51.180;20.460;2022-12-18T07:00:23;-4.87;96.85
65864;SHT30;52639;51.180;20.460;2022-12-18T07:04:29;-4.85;96.82
65864;SHT30;52639;51.180;20.460;2022-12-18T07:08:32;-4.84;96.85
65864;SHT30;52639;51.180;20.460;2022-12-18T07:12:35;-4.80;96.59
65864;SHT30;52639;51.180;20.460;2022-12-18T07:16:38;-4.79;96.56
65864;SHT30;52639;51.180;20.460;2022-12-18T07:20:43;-4.67;96.62
65864;SHT30;52639;51.180;20.460;2022-12-18T07:24:45;-4.60;96.51
65864;SHT30;52639;51.180;20.460;2022-12-18T07:28:49;-4.57;96.26
65864;SHT30;52639;51.180;20.460;2022-12-18T07:32:51;-4.49;96.27
65864;SHT30;52639;51.180;20.460;2022-12-18T07:36:56;-4.43;95.72
65864;SHT30;52639;51.180;20.460;2022-12-18T07:41:00;-4.29;95.81
65864;SHT30;52639;51.180;20.460;2022-12-18T07:45:04;-4.28;95.72
65864;SHT30;52639;51.180;20.460;2022-12-18T07:49:07;-4.25;95.27
65864;SHT30;52639;51.180;20.460;2022-12-18T07:53:11;-4.19;95.13
65864;SHT30;52639;51.180;20.460;2022-12-18T07:57:15;-4.22;94.94
65864;SHT30;52639;51.180;20.460;2022-12-18T08:01:18;-4.08;95.35
65864;SHT30;52639;51.180;20.460;2022-12-18T08:05:21;-3.92;95.05
65864;SHT30;52639;51.180;20.460;2022-12-18T08:09:25;-3.89;94.21
65864;SHT30;52639;51.180;20.460;2022-12-18T08:13:28;-3.88;94.09
65864;SHT30;52639;51.180;20.460;2022-12-18T08:17:31;-3.84;93.87
65864;SHT30;52639;51.180;20.460;2022-12-18T08:21:34;-3.68;93.48
65864;SHT30;52639;51.180;20.460;2022-12-18T08:25:38;-3.70;93.01
65864;SHT30;52639;51.180;20.460;2022-12-18T08:29:41;-3.67;92.75
65864;SHT30;52639;51.180;20.460;2022-12-18T08:33:44;-3.74;93.33
65864;SHT30;52639;51.180;20.460;2022-12-18T08:37:46;-3.64;93.14
65864;SHT30;52639;51.180;20.460;2022-12-18T08:41:51;-3.78;92.38
65864;SHT30;52639;51.180;20.460;2022-12-18T08:46:07;-3.77;93.27
65864;SHT30;52639;51.180;20.460;2022-12-18T08:50:10;-3.74;92.65
65864;SHT30;52639;51.180;20.460;2022-12-18T08:54:13;-3.72;93.27
65864;SHT30;52639;51.180;20.460;2022-12-18T08:58:18;-3.61;93.09
65864;SHT30;52639;51.180;20.460;2022-12-18T09:02:21;-3.62;91.99
65864;SHT30;52639;51.180;20.460;2022-12-18T09:06:24;-3.71;92.32
65864;SHT30;52639;51.180;20.460;2022-12-18T09:10:27;-3.52;93.26
65864;SHT30;52639;51.180;20.460;2022-12-18T09:14:32;-3.67;90.55
65864;SHT30;52639;51.180;20.460;2022-12-18T09:18:35;-3.48;92.19
65864;SHT30;52639;51.180;20.460;2022-12-18T09:22:38;-3.44;91.65
65864;SHT30;52639;51.180;20.460;2022-12-18T09:26:41;-3.40;92.30
65864;SHT30;52639;51.180;20.460;2022-12-18T09:30:47;-3.48;91.44
65864;SHT30;52639;51.180;20.460;2022-12-18T09:34:50;-3.47;92.47
65864;SHT30;52639;51.180;20.460;2022-12-18T09:38:53;-3.30;92.71
65864;SHT30;52639;51.180;20.460;2022-12-18T09:43:00;-3.11;92.36
65864;SHT30;52639;51.180;20.460;2022-12-18T09:47:09;-2.93;91.93
65864;SHT30;52639;51.180;20.460;2022-12-18T09:51:15;-2.93;90.05
65864;SHT30;52639;51.180;20.460;2022-12-18T09:55:24;-2.95;91.46
65864;SHT30;52639;51.180;20.460;2022-12-18T09:59:32;-2.85;90.94
65864;SHT30;52639;51.180;20.460;2022-12-18T10:03:38;-2.79;90.81
65864;SHT30;52639;51.180;20.460;2022-12-18T10:07:50;-2.55;91.68
65864;SHT30;52639;51.180;20.460;2022-12-18T10:12:02;-2.30;90.12
65864;SHT30;52639;51.180;20.460;2022-12-18T10:16:12;-1.81;89.85
65864;SHT30;52639;51.180;20.460;2022-12-18T10:20:24;-2.01;89.49
65864;SHT30;52639;51.180;20.460;2022-12-18T10:24:34;-2.34;89.28
65864;SHT30;52639;51.180;20.460;2022-12-18T10:28:41;-2.53;90.22
65864;SHT30;52639;51.180;20.460;2022-12-18T10:32:45;-2.58;89.42
65864;SHT30;52639;51.180;20.460;2022-12-18T10:36:49;-2.69;90.39
65864;SHT30;52639;51.180;20.460;2022-12-18T10:40:54;-2.44;91.29
65864;SHT30;52639;51.180;20.460;2022-12-18T10:45:02;-2.35;91.79
65864;SHT30;52639;51.180;20.460;2022-12-18T10:49:18;-2.41;89.73
65864;SHT30;52639;51.180;20.460;2022-12-18T10:53:25;-2.04;91.63
65864;SHT30;52639;51.180;20.460;2022-12-18T10:57:32;-2.27;89.02
65864;SHT30;52639;51.180;20.460;2022-12-18T11:01:47;-2.44;89.95
65864;SHT30;52639;51.180;20.460;2022-12-18T11:06:01;-2.45;89.55
65864;SHT30;52639;51.180;20.460;2022-12-18T11:10:16;-2.68;90.14
65864;SHT30;52639;51.180;20.460;2022-12-18T11:14:22;-2.82;88.04
65864;SHT30;52639;51.180;20.460;2022-12-18T11:18:27;-2.75;89.67
65864;SHT30;52639;51.180;20.460;2022-12-18T11:22:31;-2.79;90.72
65864;SHT30;52639;51.180;20.460;2022-12-18T11:26:36;-2.72;90.38
65864;SHT30;52639;51.180;20.460;2022-12-18T11:30:44;-2.76;90.37
65864;SHT30;52639;51.180;20.460;2022-12-18T11:34:49;-2.76;90.11
65864;SHT30;52639;51.180;20.460;2022-12-18T11:38:53;-2.85;89.84
65864;SHT30;52639;51.180;20.460;2022-12-18T11:43:06;-3.01;88.77
65864;SHT30;52639;51.180;20.460;2022-12-18T11:47:23;-3.17;90.11
65864;SHT30;52639;51.180;20.460;2022-12-18T11:51:32;-3.17;91.29
65864;SHT30;52639;51.180;20.460;2022-12-18T11:55:41;-2.63;91.73
65864;SHT30;52639;51.180;20.460;2022-12-18T11:59:55;-2.77;90.40
65864;SHT30;52639;51.180;20.460;2022-12-18T12:08:55;-3.03;90.37
65864;SHT30;52639;51.180;20.460;2022-12-18T12:13:15;-3.16;91.17
65864;SHT30;52639;51.180;20.460;2022-12-18T12:17:30;-3.14;91.26
65864;SHT30;52639;51.180;20.460;2022-12-18T12:21:39;-3.23;90.87
65864;SHT30;52639;51.180;20.460;2022-12-18T12:25:46;-3.20;90.58
65864;SHT30;52639;51.180;20.460;2022-12-18T12:30:00;-3.21;91.80
65864;SHT30;52639;51.180;20.460;2022-12-18T12:34:17;-3.37;91.60
65864;SHT30;52639;51.180;20.460;2022-12-18T12:38:27;-3.13;92.36
65864;SHT30;52639;51.180;20.460;2022-12-18T12:42:40;-3.41;91.84
65864;SHT30;52639;51.180;20.460;2022-12-18T12:47:09;-3.40;92.40
65864;SHT30;52639;51.180;20.460;2022-12-18T12:51:20;-3.58;91.87
65864;SHT30;52639;51.180;20.460;2022-12-18T12:55:25;-3.77;91.91
65864;SHT30;52639;51.180;20.460;2022-12-18T12:59:36;-3.82;92.62
65864;SHT30;52639;51.180;20.460;2022-12-18T13:03:51;-3.95;93.35
65864;SHT30;52639;51.180;20.460;2022-12-18T13:08:08;-3.96;93.22
65864;SHT30;52639;51.180;20.460;2022-12-18T13:12:16;-4.06;93.20
65864;SHT30;52639;51.180;20.460;2022-12-18T13:16:39;-4.12;93.50
65864;SHT30;52639;51.180;20.460;2022-12-18T13:20:46;-4.18;93.99
65864;SHT30;52639;51.180;20.460;2022-12-18T13:24:51;-4.30;93.79
65864;SHT30;52639;51.180;20.460;2022-12-18T13:28:55;-4.33;93.67
65864;SHT30;52639;51.180;20.460;2022-12-18T13:33:36;-4.37;94.13
65864;SHT30;52639;51.180;20.460;2022-12-18T13:37:43;-4.63;93.28
65864;SHT30;52639;51.180;20.460;2022-12-18T13:46:53;-4.94;93.38
65864;SHT30;52639;51.180;20.460;2022-12-18T13:51:01;-5.04;93.45
65864;SHT30;52639;51.180;20.460;2022-12-18T13:55:14;-5.11;94.35
65864;SHT30;52639;51.180;20.460;2022-12-18T13:59:21;-5.04;94.54
65864;SHT30;52639;51.180;20.460;2022-12-18T14:03:25;-5.08;94.48
65864;SHT30;52639;51.180;20.460;2022-12-18T14:07:29;-5.12;94.52
65864;SHT30;52639;51.180;20.460;2022-12-18T14:11:33;-5.29;94.61
65864;SHT30;52639;51.180;20.460;2022-12-18T14:15:41;-5.38;94.66
65864;SHT30;52639;51.180;20.460;2022-12-18T14:19:48;-5.46;94.92
65864;SHT30;52639;51.180;20.460;2022-12-18T14:24:13;-5.46;95.30
65864;SHT30;52639;51.180;20.460;2022-12-18T14:28:17;-5.52;95.21
65864;SHT30;52639;51.180;20.460;2022-12-18T14:32:24;-5.55;95.32
65864;SHT30;52639;51.180;20.460;2022-12-18T14:36:28;-5.65;95.46
65864;SHT30;52639;51.180;20.460;2022-12-18T14:40:32;-5.59;95.71
65864;SHT30;52639;51.180;20.460;2022-12-18T14:44:36;-5.56;95.73
65864;SHT30;52639;51.180;20.460;2022-12-18T14:48:47;-5.56;95.76
65864;SHT30;52639;51.180;20.460;2022-12-18T14:52:56;-5.65;95.32
65864;SHT30;52639;51.180;20.460;2022-12-18T14:57:18;-5.70;95.68
65864;SHT30;52639;51.180;20.460;2022-12-18T15:01:26;-5.72;95.89
65864;SHT30;52639;51.180;20.460;2022-12-18T15:05:32;-5.89;95.60
65864;SHT30;52639;51.180;20.460;2022-12-18T15:09:38;-6.09;95.90
65864;SHT30;52639;51.180;20.460;2022-12-18T15:13:43;-6.15;96.35
65864;SHT30;52639;51.180;20.460;2022-12-18T15:18:02;-6.20;96.14
65864;SHT30;52639;51.180;20.460;2022-12-18T15:22:29;-6.34;96.31
65864;SHT30;52639;51.180;20.460;2022-12-18T15:26:45;-6.24;96.66
65864;SHT30;52639;51.180;20.460;2022-12-18T15:31:21;-6.17;96.54
65864;SHT30;52639;51.180;20.460;2022-12-18T15:35:32;-6.14;96.42
65864;SHT30;52639;51.180;20.460;2022-12-18T15:39:53;-6.15;96.45
65864;SHT30;52639;51.180;20.460;2022-12-18T15:44:23;-6.13;96.36
65864;SHT30;52639;51.180;20.460;2022-12-18T15:48:31;-6.15;96.54
65864;SHT30;52639;51.180;20.460;2022-12-18T15:52:39;-6.13;96.91
65864;SHT30;52639;51.180;20.460;2022-12-18T15:56:53;-6.07;96.67
65864;SHT30;52639;51.180;20.460;2022-12-18T16:01:13;-6.10;96.61
65864;SHT30;52639;51.180;20.460;2022-12-18T16:05:20;-6.17;96.46
65864;SHT30;52639;51.180;20.460;2022-12-18T16:09:25;-6.15;96.83
65864;SHT30;52639;51.180;20.460;2022-12-18T16:13:31;-6.13;96.70
65864;SHT30;52639;51.180;20.460;2022-12-18T16:17:35;-6.14;96.57
65864;SHT30;52639;51.180;20.460;2022-12-18T16:21:40;-6.14;96.56
65864;SHT30;52639;51.180;20.460;2022-12-18T16:25:50;-6.13;96.75
65864;SHT30;52639;51.180;20.460;2022-12-18T16:29:59;-6.15;96.63
65864;SHT30;52639;51.180;20.460;2022-12-18T16:34:12;-6.15;96.63
65864;SHT30;52639;51.180;20.460;2022-12-18T16:38:18;-6.15;96.62
65864;SHT30;52639;51.180;20.460;2022-12-18T16:42:26;-6.18;96.57
65864;SHT30;52639;51.180;20.460;2022-12-18T16:46:59;-6.18;96.69
65864;SHT30;52639;51.180;20.460;2022-12-18T16:51:31;-6.15;96.70
65864;SHT30;52639;51.180;20.460;2022-12-18T16:56:07;-6.15;96.66
65864;SHT30;52639;51.180;20.460;2022-12-18T17:00:32;-6.14;96.64
65864;SHT30;52639;51.180;20.460;2022-12-18T17:05:09;-6.17;96.61
65864;SHT30;52639;51.180;20.460;2022-12-18T17:09:51;-6.15;96.65
65864;SHT30;52639;51.180;20.460;2022-12-18T17:14:24;-6.11;96.78
65864;SHT30;52639;51.180;20.460;2022-12-18T17:18:53;-6.10;96.83
65864;SHT30;52639;51.180;20.460;2022-12-18T17:23:24;-6.11;96.60
65864;SHT30;52639;51.180;20.460;2022-12-18T17:28:05;-6.06;96.64
65864;SHT30;52639;51.180;20.460;2022-12-18T17:32:31;-6.06;96.50
65864;SHT30;52639;51.180;20.460;2022-12-18T17:37:07;-6.02;96.63
65864;SHT30;52639;51.180;20.460;2022-12-18T17:41:38;-6.02;96.57
65864;SHT30;52639;51.180;20.460;2022-12-18T17:46:11;-6.02;96.39
65864;SHT30;52639;51.180;20.460;2022-12-18T17:50:40;-6.06;96.38
65864;SHT30;52639;51.180;20.460;2022-12-18T17:54:46;-6.00;96.50
65864;SHT30;52639;51.180;20.460;2022-12-18T17:58:55;-5.97;96.27
65864;SHT30;52639;51.180;20.460;2022-12-18T18:03:00;-5.97;96.37
65864;SHT30;52639;51.180;20.460;2022-12-18T18:07:07;-5.99;96.16
65864;SHT30;52639;51.180;20.460;2022-12-18T18:11:19;-5.99;96.19
65864;SHT30;52639;51.180;20.460;2022-12-18T18:16:00;-5.99;96.09
65864;SHT30;52639;51.180;20.460;2022-12-18T18:20:06;-5.96;96.05
65864;SHT30;52639;51.180;20.460;2022-12-18T18:24:12;-5.97;96.02
65864;SHT30;52639;51.180;20.460;2022-12-18T18:28:16;-5.93;96.06
65864;SHT30;52639;51.180;20.460;2022-12-18T18:32:22;-5.90;95.92
65864;SHT30;52639;51.180;20.460;2022-12-18T18:36:27;-5.90;96.00
65864;SHT30;52639;51.180;20.460;2022-12-18T18:40:32;-5.86;96.07
65864;SHT30;52639;51.180;20.460;2022-12-18T18:44:38;-5.85;96.10
65864;SHT30;52639;51.180;20.460;2022-12-18T18:48:45;-5.80;95.95
65864;SHT30;52639;51.180;20.460;2022-12-18T18:52:49;-5.82;95.73
65864;SHT30;52639;51.180;20.460;2022-12-18T18:56:56;-5.79;95.57
65864;SHT30;52639;51.180;20.460;2022-12-18T19:01:05;-5.80;95.37
65864;SHT30;52639;51.180;20.460;2022-12-18T19:05:12;-5.76;95.38
65864;SHT30;52639;51.180;20.460;2022-12-18T19:09:17;-5.75;95.29
65864;SHT30;52639;51.180;20.460;2022-12-18T19:13:24;-5.73;95.33
65864;SHT30;52639;51.180;20.460;2022-12-18T19:17:30;-5.75;95.44
65864;SHT30;52639;51.180;20.460;2022-12-18T19:21:37;-5.73;95.26
65864;SHT30;52639;51.180;20.460;2022-12-18T19:25:44;-5.76;95.07
65864;SHT30;52639;51.180;20.460;2022-12-18T19:29:49;-5.73;94.80
65864;SHT30;52639;51.180;20.460;2022-12-18T19:33:54;-5.72;94.90
65864;SHT30;52639;51.180;20.460;2022-12-18T19:38:00;-5.70;94.85
65864;SHT30;52639;51.180;20.460;2022-12-18T19:42:05;-5.73;94.94
65864;SHT30;52639;51.180;20.460;2022-12-18T19:46:13;-5.75;95.04
65864;SHT30;52639;51.180;20.460;2022-12-18T19:50:20;-5.78;94.84
65864;SHT30;52639;51.180;20.460;2022-12-18T19:54:27;-5.76;94.96
65864;SHT30;52639;51.180;20.460;2022-12-18T19:58:35;-5.80;94.82
65864;SHT30;52639;51.180;20.460;2022-12-18T20:02:41;-5.79;94.94
65864;SHT30;52639;51.180;20.460;2022-12-18T20:06:47;-5.78;94.59
65864;SHT30;52639;51.180;20.460;2022-12-18T20:10:53;-5.78;94.67
65864;SHT30;52639;51.180;20.460;2022-12-18T20:14:59;-5.82;94.77
65864;SHT30;52639;51.180;20.460;2022-12-18T20:19:03;-5.79;94.85
65864;SHT30;52639;51.180;20.460;2022-12-18T20:23:11;-5.82;94.92
65864;SHT30;52639;51.180;20.460;2022-12-18T20:27:18;-5.86;94.41
65864;SHT30;52639;51.180;20.460;2022-12-18T20:31:22;-5.87;94.35
65864;SHT30;52639;51.180;20.460;2022-12-18T20:35:27;-5.87;94.54
65864;SHT30;52639;51.180;20.460;2022-12-18T20:39:31;-5.89;94.64
65864;SHT30;52639;51.180;20.460;2022-12-18T20:43:37;-5.93;94.55
65864;SHT30;52639;51.180;20.460;2022-12-18T20:47:41;-6.00;94.07
65864;SHT30;52639;51.180;20.460;2022-12-18T20:51:49;-6.00;94.24
65864;SHT30;52639;51.180;20.460;2022-12-18T20:55:53;-6.06;94.45
65864;SHT30;52639;51.180;20.460;2022-12-18T21:00:01;-6.11;94.35
65864;SHT30;52639;51.180;20.460;2022-12-18T21:04:05;-6.18;94.14
65864;SHT30;52639;51.180;20.460;2022-12-18T21:08:09;-6.17;94.13
65864;SHT30;52639;51.180;20.460;2022-12-18T21:12:14;-6.28;93.96
65864;SHT30;52639;51.180;20.460;2022-12-18T21:16:36;-6.34;94.08
65864;SHT30;52639;51.180;20.460;2022-12-18T21:20:40;-6.37;94.28
65864;SHT30;52639;51.180;20.460;2022-12-18T21:24:43;-6.44;94.43
65864;SHT30;52639;51.180;20.460;2022-12-18T21:28:46;-6.48;94.47
65864;SHT30;52639;51.180;20.460;2022-12-18T21:32:51;-6.54;94.50
65864;SHT30;52639;51.180;20.460;2022-12-18T21:36:55;-6.52;94.72
65864;SHT30;52639;51.180;20.460;2022-12-18T21:40:59;-6.57;94.60
65864;SHT30;52639;51.180;20.460;2022-12-18T21:45:02;-6.57;94.76
65864;SHT30;52639;51.180;20.460;2022-12-18T21:49:07;-6.61;94.77
65864;SHT30;52639;51.180;20.460;2022-12-18T21:53:10;-6.64;94.79
65864;SHT30;52639;51.180;20.460;2022-12-18T21:57:13;-6.69;94.66
65864;SHT30;52639;51.180;20.460;2022-12-18T22:01:18;-6.77;94.97
65864;SHT30;52639;51.180;20.460;2022-12-18T22:05:22;-6.89;94.99
65864;SHT30;52639;51.180;20.460;2022-12-18T22:09:25;-6.95;95.11
65864;SHT30;52639;51.180;20.460;2022-12-18T22:13:28;-7.02;94.81
65864;SHT30;52639;51.180;20.460;2022-12-18T22:17:31;-7.08;95.00
65864;SHT30;52639;51.180;20.460;2022-12-18T22:21:37;-7.12;94.98
65864;SHT30;52639;51.180;20.460;2022-12-18T22:25:40;-7.13;95.15
65864;SHT30;52639;51.180;20.460;2022-12-18T22:29:43;-7.26;94.78
65864;SHT30;52639;51.180;20.460;2022-12-18T22:34:03;-7.40;95.33
65864;SHT30;52639;51.180;20.460;2022-12-18T22:38:08;-7.50;95.96
65864;SHT30;52639;51.180;20.460;2022-12-18T22:42:11;-7.70;95.22
65864;SHT30;52639;51.180;20.460;2022-12-18T22:46:16;-7.94;95.12
65864;SHT30;52639;51.180;20.460;2022-12-18T22:50:19;-8.29;94.92
65864;SHT30;52639;51.180;20.460;2022-12-18T22:54:23;-8.45;95.68
65864;SHT30;52639;51.180;20.460;2022-12-18T22:58:26;-8.56;96.40
65864;SHT30;52639;51.180;20.460;2022-12-18T23:02:29;-8.90;95.07
65864;SHT30;52639;51.180;20.460;2022-12-18T23:06:32;-9.20;95.46
65864;SHT30;52639;51.180;20.460;2022-12-18T23:10:37;-9.54;95.39
65864;SHT30;52639;51.180;20.460;2022-12-18T23:14:40;-9.78;96.21
65864;SHT30;52639;51.180;20.460;2022-12-18T23:18:43;-9.79;95.83
65864;SHT30;52639;51.180;20.460;2022-12-18T23:22:46;-10.01;96.76
65864;SHT30;52639;51.180;20.460;2022-12-18T23:26:50;-10.05;96.44
65864;SHT30;52639;51.180;20.460;2022-12-18T23:30:53;-10.46;95.26
65864;SHT30;52639;51.180;20.460;2022-12-18T23:34:56;-10.91;95.03
65864;SHT30;52639;51.180;20.460;2022-12-18T23:38:59;-11.01;95.68
65864;SHT30;52639;51.180;20.460;2022-12-18T23:43:03;-11.31;94.73
65864;SHT30;52639;51.180;20.460;2022-12-18T23:47:06;-10.88;96.72
65864;SHT30;52639;51.180;20.460;2022-12-18T23:51:11;-11.15;94.18
65864;SHT30;52639;51.180;20.460;2022-12-18T23:55:13;-11.36;93.33
65864;SHT30;52639;51.180;20.460;2022-12-18T23:59:18;-11.53;94.28
